METAR stanice u blizini

 

LYBE - Beograd / Surčin, Srbija
Ažurirano: 28/05/2020 13:30
Partly Cloudy
Partly Cloudy
 Pravac vetra ZSZ
Vetar: ZSZ 22 km/h
Temperatura: 19°C
Tačka rose: 11°C
Vlažnost: 60%
Pritisak: 1020 hPa
Oblaci: Partly Cloudy
Vidljivost: 10 km
Cloud details: Partly Cloudy 1067 m
2020/05/28 11:30 LYBE 281130Z 29012KT 9999 SCT035 19/11 Q1020 NOSIG
LYBT - Beograd / Batajnica, Srbija
Ažurirano: 28/05/2020 13:30
Mostly Cloudy
Mostly Cloudy
 Pravac vetra ZSZ
Vetar: ZSZ 22 km/h
Temperatura: 20°C
Tačka rose: 10°C
Vlažnost: 53%
Pritisak: 1020 hPa
Oblaci: Mostly Cloudy
Vidljivost: 10 km
Cloud details: Mostly Cloudy 1219 m
2020/05/28 11:30 LYBT 281130Z 29012KT 250V330 9999 BKN040 20/10 Q1020 NOSIG
LYVR - Vršac, Srbija
Ažurirano: 28/05/2020 13:30
Partly Cloudy
Partly Cloudy
 Pravac vetra ZSZ
Vetar: ZSZ 15 km/h
Temperatura: 19°C
Tačka rose: 10°C
Vlažnost: 56%
Pritisak: 1018 hPa
Oblaci: Partly Cloudy
Vidljivost: 10 km
Cloud details: Few Clouds 914 m
Partly Cloudy 1006 m
2020/05/28 11:30 LYVR 281130Z 30008KT 260V340 9999 FEW030TCU SCT033 19/10 Q1018 TEMPO 32015G25KT 5000 SHRA
 
LYKV - Lađevci, Srbija
Ažurirano: 28/05/2020 13:30
Mostly Cloudy
Mostly Cloudy
 Pravac vetra SSZ
Vetar: SSZ 17 km/h
Temperatura: 19°C
Tačka rose: 12°C
Vlažnost: 64%
Pritisak: 1020 hPa
Oblaci: Mostly Cloudy
Vidljivost: 10 km
Cloud details: Mostly Cloudy 1128 m
2020/05/28 11:30 LYKV 281130Z 33009KT 270V010 9999 BKN037 19/12 Q1020 NOSIG
LYNI - Niš, Srbija
Ažurirano: 28/05/2020 13:30
Partly Cloudy
Partly Cloudy
 Pravac vetra SZ
Vetar: SZ 20 km/h
Temperatura: 18°C
Tačka rose: 9°C
Vlažnost: 56%
Pritisak: 1019 hPa
Oblaci: Partly Cloudy
Vidljivost: 10 km
Cloud details: Few Clouds 762 m
Partly Cloudy 1006 m
2020/05/28 11:30 LYNI 281130Z 31011KT 260V330 9999 FEW025TCU SCT033 18/09 Q1019 NOSIG
BKPR - Priština, Srbija
Ažurirano: 28/05/2020 14:00
Mostly Cloudy
Mostly Cloudy
 Pravac vetra SSI
Vetar: SSI 15 km/h
Temperatura: 16°C
Tačka rose: 7°C
Vlažnost: 55%
Pritisak: 1019 hPa
Oblaci: Mostly Cloudy
Vidljivost: 10 km
Cloud details: Few Clouds 914 m
Mostly Cloudy 1219 m
2020/05/28 12:00 BKPR 281200Z 02008KT 330V060 9999 FEW030TCU BKN040 16/07 Q1019 NOSIG
 
LHPP - Pecs / Pogany, Hungary
Ažurirano: 28/05/2020 13:15
Mostly Cloudy
Mostly Cloudy
 Pravac vetra S
Vetar: S 19 km/h
Temperatura: 20°C
Tačka rose: 9°C
Vlažnost: 49%
Pritisak: 1021 hPa
Oblaci: Mostly Cloudy
Vidljivost: 10 km
Cloud details: Mostly Cloudy 1402 m
2020/05/28 11:15 LHPP 281115Z 35010KT 9999 BKN046 20/09 Q1021
LHUD - Szeged, Hungary
Ažurirano: 04/07/2019 01:45
NOT Current
Vedro
Vedro
 Pravac vetra S
Vetar: S 7 km/h
Temperatura: 18°C
Tačka rose: 13°C
Vlažnost: 73%
Pritisak: 1019 hPa
Pregled: Vedro
Vidljivost: greater than 10 km
2019/07/03 23:45 LHUD 032345Z 35004KT CAVOK 18/13 Q1019
LRTR - Timisoara, Romania
Ažurirano: 28/05/2020 13:30
Partly Cloudy
Partly Cloudy
 Pravac vetra SSZ
Vetar: SSZ 24 km/h
Temperatura: 20°C
Tačka rose: 7°C
Vlažnost: 43%
Pritisak: 1017 hPa
Oblaci: Partly Cloudy
Vidljivost: 10 km
Cloud details: Few Clouds 1372 m
Partly Cloudy 1463 m
2020/05/28 11:30 LRTR 281130Z 34013KT 300V020 9999 FEW045CB SCT048 20/07 Q1017
 
LRCV - Craiova, Romania
Ažurirano: 28/05/2020 13:30
Few Clouds
Few Clouds
 Pravac vetra SSZ
Vetar: SSZ 13 km/h
Temperatura: 20°C
Tačka rose: 8°C
Vlažnost: 46%
Pritisak: 1015 hPa
Oblaci: Few Clouds
Vidljivost: 10 km
Cloud details: Few Clouds 1372 m
2020/05/28 11:30 LRCV 281130Z 34007KT 280V050 9999 FEW045CB 20/08 Q1015
LBSF - Sofia, Bulgaria
Ažurirano: 28/05/2020 13:30
Mostly Cloudy
Mostly Cloudy
 Pravac vetra ZSZ
Vetar: ZSZ 20 km/h
Temperatura: 15°C
Tačka rose: 9°C
Vlažnost: 68%
Pritisak: 1017 hPa
Oblaci: Mostly Cloudy
Vidljivost: 10 km
Cloud details: Few Clouds 610 m
Partly Cloudy 1676 m
Mostly Cloudy 2438 m
2020/05/28 11:30 LBSF 281130Z 30011KT 9999 FEW020CB SCT055 BKN080 15/09 Q1017 NOSIG
LWSK - Skoplje, Makedonija
Ažurirano: 28/05/2020 14:00
Padavine, Oblačno
Padavine, Oblačno
 Pravac vetra varies
Vetar: varies 2 km/h
Temperatura: 15°C
Tačka rose: 12°C
Vlažnost: 82%
Pritisak: 1019 hPa
Pregled: Padavine
Oblaci: Oblačno
Vidljivost: 10 km
Cloud details: Partly Cloudy 1219 m
Oblačno 2134 m
2020/05/28 12:00 LWSK 281200Z VRB01KT 9999 RA SCT040 OVC070 15/12 Q1019 NOSIG
 
LYPG - Podgorica, Crna Gora
Ažurirano: 28/05/2020 13:30
Partly Cloudy
Partly Cloudy
 Pravac vetra S
Vetar: S 11 km/h
Temperatura: 22°C
Tačka rose: 5°C
Vlažnost: 33%
Pritisak: 1019 hPa
Oblaci: Partly Cloudy
Vidljivost: 10 km
Cloud details: Few Clouds 1219 m
Partly Cloudy 2438 m
2020/05/28 11:30 LYPG 281130Z 01006KT 9999 FEW040TCU SCT080 22/05 Q1019 NOSIG
LQSA - Sarajevo, Bosna i Hercegovina
Ažurirano: 28/05/2020 13:30
Partly Cloudy
Partly Cloudy
 Pravac vetra JZ
Vetar: JZ 6 km/h
Temperatura: 15°C
Tačka rose: 10°C
Vlažnost: 72%
Pritisak: 1022 hPa
Oblaci: Partly Cloudy
Vidljivost: 10 km
Cloud details: Few Clouds 1219 m
Partly Cloudy 1829 m
2020/05/28 11:30 LQSA 281130Z 23003KT 170V280 9999 FEW040TCU SCT060 15/10 Q1022 NOSIG
LDOS - Osijek, Hrvatksa
Ažurirano: 28/05/2020 13:30
Few Clouds
Few Clouds
 Pravac vetra SZ
Vetar: SZ 19 km/h
Temperatura: 20°C
Tačka rose: 10°C
Vlažnost: 53%
Pritisak: 1021 hPa
Oblaci: Few Clouds
Vidljivost: 10 km
Cloud details: Few Clouds 1311 m
2020/05/28 11:30 LDOS 281130Z 32010KT 9999 FEW043 20/10 Q1021